createdAt,value
2022-07-27T00:01:06.423Z,435.73
2022-07-27T00:03:34.160Z,284.13
2022-07-27T00:06:01.904Z,392.80
2022-07-27T00:08:29.509Z,444.38
2022-07-27T00:10:57.614Z,270.15
2022-07-27T00:13:25.823Z,467.77
2022-07-27T00:15:53.333Z,483.63
2022-07-27T00:18:21.204Z,266.17
2022-07-27T00:20:49.231Z,438.35
2022-07-27T00:23:16.939Z,374.30
2022-07-27T00:25:44.395Z,348.30
2022-07-27T00:28:11.976Z,320.87
2022-07-27T00:30:39.504Z,389.73
2022-07-27T00:33:07.252Z,397.17
2022-07-27T00:35:35.947Z,454.77
2022-07-27T00:38:03.610Z,477.60
2022-07-27T00:40:31.994Z,361.60
2022-07-27T00:42:59.651Z,419.85
2022-07-27T00:45:27.091Z,287.27
2022-07-27T00:47:55.182Z,401.67
2022-07-27T00:50:23.629Z,339.67
2022-07-27T00:52:52.115Z,217.00
2022-07-27T00:55:20.050Z,403.38
2022-07-27T00:57:58.467Z,231.50
2022-07-27T01:00:29.032Z,277.42
2022-07-27T01:02:57.414Z,273.33
2022-07-27T01:05:30.252Z,211.82
2022-07-27T01:08:06.134Z,336.42
2022-07-27T01:10:34.124Z,274.02
2022-07-27T01:13:02.183Z,222.37
2022-07-27T01:15:30.142Z,321.33
2022-07-27T01:17:57.673Z,278.42
2022-07-27T01:20:25.314Z,418.70
2022-07-27T01:22:52.916Z,344.25
2022-07-27T01:25:20.647Z,221.27
2022-07-27T01:27:48.192Z,213.85
2022-07-27T01:30:27.499Z,236.65
2022-07-27T01:33:06.011Z,386.35
2022-07-27T01:35:34.529Z,274.23
2022-07-27T01:38:02.202Z,281.27
2022-07-27T01:40:30.991Z,269.77
2022-07-27T01:42:58.565Z,225.43
2022-07-27T01:45:26.293Z,197.50
2022-07-27T01:47:53.765Z,288.02
2022-07-27T01:50:21.427Z,229.60
2022-07-27T01:52:48.989Z,311.73
2022-07-27T01:55:16.628Z,190.88
2022-07-27T01:57:44.247Z,344.30
2022-07-27T02:00:12.724Z,245.40
2022-07-27T02:02:41.057Z,241.93
2022-07-27T02:05:12.888Z,283.35
2022-07-27T02:07:42.120Z,237.13
2022-07-27T02:10:10.797Z,378.95
2022-07-27T02:12:38.934Z,263.20
2022-07-27T02:15:08.849Z,259.75
2022-07-27T02:17:44.943Z,333.87
2022-07-27T02:20:15.092Z,230.95
2022-07-27T02:22:42.922Z,272.10
2022-07-27T02:25:11.948Z,435.27
2022-07-27T02:27:40.749Z,290.50
2022-07-27T02:30:10.394Z,254.65
2022-07-27T02:32:38.049Z,378.42
2022-07-27T02:35:18.524Z,254.93
2022-07-27T02:37:48.907Z,205.00
2022-07-27T02:40:17.790Z,313.20
2022-07-27T02:42:47.005Z,271.58
2022-07-27T02:45:17.835Z,301.30
2022-07-27T02:47:45.467Z,223.55
2022-07-27T02:50:13.724Z,327.08
2022-07-27T02:52:41.665Z,300.88
2022-07-27T02:55:09.773Z,272.45
2022-07-27T02:57:41.295Z,289.90
2022-07-27T03:00:12.384Z,211.43
2022-07-27T03:02:40.211Z,213.95
2022-07-27T03:05:09.877Z,346.88
2022-07-27T03:07:37.867Z,172.50
2022-07-27T03:10:06.111Z,277.33
2022-07-27T03:12:33.756Z,323.17
2022-07-27T03:15:01.241Z,256.60
2022-07-27T03:17:28.871Z,270.65
2022-07-27T03:19:56.515Z,240.70
2022-07-27T03:22:24.081Z,221.68
2022-07-27T03:24:51.516Z,257.00
2022-07-27T03:27:19.120Z,255.10
2022-07-27T03:29:46.531Z,299.67
2022-07-27T03:32:14.104Z,230.05
2022-07-27T03:34:41.670Z,186.65
2022-07-27T03:37:09.351Z,234.03
2022-07-27T03:39:36.934Z,267.48
2022-07-27T03:42:04.641Z,230.55
2022-07-27T03:44:32.151Z,188.17
2022-07-27T03:46:59.861Z,232.73
2022-07-27T03:49:27.611Z,182.45
2022-07-27T03:51:55.177Z,207.70
2022-07-27T03:54:22.582Z,190.45
2022-07-27T03:56:50.244Z,282.70
2022-07-27T03:59:17.697Z,332.05
2022-07-27T04:01:46.299Z,133.33
2022-07-27T04:04:14.226Z,134.32
2022-07-27T04:06:41.740Z,158.20
2022-07-27T04:09:09.269Z,227.70
2022-07-27T04:11:43.438Z,228.43
2022-07-27T04:14:13.271Z,245.38
2022-07-27T04:16:41.673Z,207.15
2022-07-27T04:19:09.830Z,196.67
2022-07-27T04:21:38.336Z,184.18
2022-07-27T04:24:07.265Z,210.20
2022-07-27T04:26:34.833Z,163.98
2022-07-27T04:29:02.578Z,227.43
2022-07-27T04:31:30.371Z,162.13
2022-07-27T04:33:58.140Z,277.05
2022-07-27T04:36:25.783Z,242.98
2022-07-27T04:38:53.462Z,200.95
2022-07-27T04:41:21.042Z,185.50
2022-07-27T04:43:51.421Z,191.48
2022-07-27T04:46:19.236Z,242.75
2022-07-27T04:48:49.215Z,218.90
2022-07-27T04:51:17.965Z,171.50
2022-07-27T04:53:53.437Z,196.23
2022-07-27T04:56:27.046Z,259.73
2022-07-27T04:58:57.667Z,255.88
2022-07-27T05:01:28.278Z,216.35
2022-07-27T05:03:58.062Z,228.40
2022-07-27T05:06:25.902Z,174.25
2022-07-27T05:08:53.421Z,219.30
2022-07-27T05:11:20.871Z,238.68
2022-07-27T05:13:48.496Z,195.52
2022-07-27T05:16:15.989Z,175.65
2022-07-27T05:18:43.715Z,185.13
2022-07-27T05:21:11.275Z,247.97
2022-07-27T05:23:38.855Z,143.80
2022-07-27T05:26:06.390Z,204.63
2022-07-27T05:28:34.025Z,162.98
2022-07-27T05:31:01.679Z,169.37
2022-07-27T05:33:29.274Z,193.73
2022-07-27T05:35:57.417Z,185.98
2022-07-27T05:38:25.109Z,194.00
2022-07-27T05:40:53.477Z,207.88
2022-07-27T05:43:21.382Z,232.02
2022-07-27T05:45:49.189Z,213.77
2022-07-27T05:48:16.829Z,180.48
2022-07-27T05:50:44.577Z,173.98
2022-07-27T05:53:12.169Z,168.43
2022-07-27T05:55:39.719Z,171.20
2022-07-27T05:58:29.869Z,207.45
2022-07-27T06:00:58.183Z,200.83
2022-07-27T06:03:26.120Z,170.93
2022-07-27T06:06:13.750Z,218.15
2022-07-27T06:08:41.418Z,201.67
2022-07-27T06:11:09.080Z,184.45
2022-07-27T06:13:37.047Z,134.15
2022-07-27T06:16:06.582Z,182.18
2022-07-27T06:18:34.213Z,227.65
2022-07-27T06:21:02.730Z,204.95
2022-07-27T06:23:30.471Z,172.18
2022-07-27T06:25:58.253Z,154.85
2022-07-27T06:28:25.870Z,149.20
2022-07-27T06:30:56.576Z,186.32
2022-07-27T06:33:31.185Z,207.43
2022-07-27T06:36:00.051Z,185.55
2022-07-27T06:38:30.205Z,181.15
2022-07-27T06:40:58.033Z,208.20
2022-07-27T06:43:30.781Z,166.03
2022-07-27T06:45:59.700Z,181.07
2022-07-27T06:48:28.051Z,169.70
2022-07-27T06:50:55.723Z,160.10
2022-07-27T06:53:23.650Z,186.85
2022-07-27T06:55:51.464Z,175.15
2022-07-27T06:58:19.632Z,225.02
2022-07-27T07:00:47.817Z,189.63
2022-07-27T07:03:15.459Z,169.88
2022-07-27T07:05:45.951Z,175.63
2022-07-27T07:08:15.889Z,225.07
2022-07-27T07:10:45.277Z,228.73
2022-07-27T07:13:13.194Z,246.32
2022-07-27T07:15:41.717Z,198.57
2022-07-27T07:18:10.498Z,209.27
2022-07-27T07:20:39.204Z,270.58
2022-07-27T07:23:07.200Z,221.05
2022-07-27T07:25:35.631Z,253.03
2022-07-27T07:28:03.804Z,249.77
2022-07-27T07:30:32.248Z,173.07
2022-07-27T07:33:00.691Z,189.00
2022-07-27T07:35:30.045Z,179.15
2022-07-27T07:38:00.259Z,214.95
2022-07-27T07:40:45.233Z,244.52
2022-07-27T07:43:18.655Z,273.27
2022-07-27T07:45:52.152Z,215.90
2022-07-27T07:48:25.222Z,226.50
2022-07-27T07:50:54.118Z,278.45
2022-07-27T07:53:24.746Z,200.68
2022-07-27T07:56:00.650Z,180.18
2022-07-27T07:58:28.706Z,206.93
2022-07-27T08:00:57.030Z,171.33
2022-07-27T08:03:26.904Z,181.93
2022-07-27T08:05:54.620Z,191.27
2022-07-27T08:08:27.617Z,193.07
2022-07-27T08:10:56.256Z,186.98
2022-07-27T08:13:25.071Z,179.10
2022-07-27T08:15:57.966Z,180.90
2022-07-27T08:18:26.225Z,200.98
2022-07-27T08:20:53.953Z,199.67
2022-07-27T08:23:21.624Z,152.70
2022-07-27T08:25:50.067Z,203.85
2022-07-27T08:28:18.782Z,206.68
2022-07-27T08:30:47.985Z,190.85
2022-07-27T08:33:18.945Z,188.13
2022-07-27T08:35:48.072Z,188.48
2022-07-27T08:38:17.545Z,188.52
2022-07-27T08:40:48.379Z,153.40
2022-07-27T08:43:21.941Z,144.77
2022-07-27T08:45:58.184Z,226.07
2022-07-27T08:48:29.406Z,157.50
2022-07-27T08:50:58.293Z,170.25
2022-07-27T08:53:26.528Z,198.48
2022-07-27T08:56:14.337Z,166.55
2022-07-27T08:58:43.716Z,158.00
2022-07-27T09:01:11.474Z,143.35
2022-07-27T09:03:39.192Z,138.88
2022-07-27T09:06:06.877Z,146.05
2022-07-27T09:08:35.679Z,137.17
2022-07-27T09:11:15.405Z,145.63
2022-07-27T09:13:43.357Z,162.15
2022-07-27T09:16:20.443Z,149.27
2022-07-27T09:18:58.757Z,151.32
2022-07-27T09:21:26.572Z,163.85
2022-07-27T09:23:56.270Z,142.30
2022-07-27T09:26:34.533Z,139.60
2022-07-27T09:29:16.815Z,168.65
2022-07-27T09:31:52.301Z,161.40
2022-07-27T09:34:33.578Z,171.80
2022-07-27T09:37:05.590Z,138.68
2022-07-27T09:39:33.789Z,169.43
2022-07-27T09:42:02.952Z,156.85
2022-07-27T09:44:42.534Z,164.67
2022-07-27T09:47:28.317Z,144.73
2022-07-27T09:50:19.281Z,159.00
2022-07-27T09:52:47.657Z,158.75
2022-07-27T09:55:19.709Z,142.57
2022-07-27T09:57:59.012Z,155.67
2022-07-27T10:00:27.581Z,171.07
2022-07-27T10:02:55.526Z,166.90
2022-07-27T10:05:23.780Z,185.00
2022-07-27T10:07:54.108Z,166.25
2022-07-27T10:10:23.848Z,161.70
2022-07-27T10:12:55.191Z,147.75
2022-07-27T10:15:25.239Z,153.82
2022-07-27T10:18:07.764Z,172.83
2022-07-27T10:20:39.930Z,160.95
2022-07-27T10:23:07.953Z,164.05
2022-07-27T10:25:37.858Z,141.02
2022-07-27T10:28:19.597Z,127.17
2022-07-27T10:30:53.621Z,151.35
2022-07-27T10:33:48.338Z,144.30
2022-07-27T10:36:25.068Z,120.25
2022-07-27T10:38:56.876Z,138.68
2022-07-27T10:41:25.885Z,147.50
2022-07-27T10:44:29.134Z,146.68
2022-07-27T10:47:02.252Z,145.07
2022-07-27T10:49:33.040Z,154.68
2022-07-27T10:52:28.366Z,151.83
2022-07-27T10:54:59.983Z,119.40
2022-07-27T10:57:28.487Z,136.73
2022-07-27T11:00:16.359Z,144.00
2022-07-27T11:02:43.765Z,152.52
2022-07-27T11:05:32.914Z,115.07
2022-07-27T11:10:49.154Z,108.40
2022-07-27T11:13:22.071Z,115.43
2022-07-27T11:16:23.396Z,127.70
2022-07-27T11:19:01.697Z,124.67
2022-07-27T11:21:32.487Z,54.25
2022-07-27T11:24:07.725Z,107.03
2022-07-27T11:26:45.177Z,120.73
2022-07-27T11:29:15.208Z,121.95
2022-07-27T11:31:56.047Z,120.53
2022-07-27T11:34:36.676Z,140.95
2022-07-27T11:37:12.630Z,137.35
2022-07-27T11:40:00.053Z,163.27
2022-07-27T11:42:41.766Z,124.78
2022-07-27T11:45:10.172Z,99.82
2022-07-27T11:47:37.706Z,130.52
2022-07-27T11:50:07.518Z,148.93
2022-07-27T11:52:35.439Z,90.63
2022-07-27T11:55:03.165Z,127.55
2022-07-27T11:57:34.151Z,127.60
2022-07-27T12:00:02.557Z,231.65
2022-07-27T12:02:49.686Z,105.53
2022-07-27T12:05:17.794Z,140.53
2022-07-27T12:07:45.378Z,151.93
2022-07-27T12:10:13.649Z,174.25
2022-07-27T12:12:41.485Z,124.33
2022-07-27T12:15:45.935Z,180.73
2022-07-27T12:18:08.107Z,144.97
2022-07-27T12:20:37.442Z,150.70
2022-07-27T12:23:07.534Z,163.88
2022-07-27T12:25:36.752Z,147.35
2022-07-27T12:28:18.137Z,134.00
2022-07-27T12:30:48.205Z,144.80
2022-07-27T12:33:29.406Z,108.00
2022-07-27T12:35:58.879Z,156.05
2022-07-27T12:38:41.773Z,135.00
2022-07-27T12:41:09.418Z,152.45
2022-07-27T12:43:36.988Z,144.68
2022-07-27T12:46:13.092Z,107.68
2022-07-27T12:48:43.196Z,136.33
2022-07-27T12:51:12.370Z,86.47
2022-07-27T12:53:41.244Z,128.90
2022-07-27T12:56:10.697Z,165.33
2022-07-27T12:58:40.463Z,147.23
2022-07-27T13:01:08.329Z,166.18
2022-07-27T13:03:37.696Z,119.43
2022-07-27T13:06:10.863Z,145.60
2022-07-27T13:08:41.713Z,163.63
2022-07-27T13:11:09.518Z,116.32
2022-07-27T13:13:37.264Z,106.95
2022-07-27T13:16:04.971Z,143.00
2022-07-27T13:18:32.899Z,160.37
2022-07-27T13:21:00.440Z,103.15
2022-07-27T13:23:28.384Z,119.75
2022-07-27T13:25:57.904Z,112.80
2022-07-27T13:28:28.595Z,82.28
2022-07-27T13:30:57.173Z,107.43
2022-07-27T13:33:25.879Z,141.32
2022-07-27T13:36:00.864Z,96.30
2022-07-27T13:38:30.382Z,114.68
2022-07-27T13:41:00.962Z,160.48
2022-07-27T13:43:28.556Z,130.73
2022-07-27T13:45:56.059Z,108.30
2022-07-27T13:48:23.713Z,129.18
2022-07-27T13:50:51.256Z,125.07
2022-07-27T13:53:19.265Z,113.80
2022-07-27T13:55:46.886Z,107.00
2022-07-27T13:58:14.438Z,74.80
2022-07-27T14:00:42.372Z,110.03
2022-07-27T14:03:11.493Z,74.38
2022-07-27T14:05:41.291Z,99.65
2022-07-27T14:08:19.180Z,114.45
2022-07-27T14:10:46.896Z,109.68
2022-07-27T14:13:16.635Z,107.53
2022-07-27T14:15:53.674Z,84.85
2022-07-27T14:18:32.648Z,123.38
2022-07-27T14:21:04.769Z,70.47
2022-07-27T14:23:33.617Z,175.55
2022-07-27T14:26:02.027Z,130.88
2022-07-27T14:28:30.395Z,164.37
2022-07-27T14:30:59.049Z,121.78
2022-07-27T14:33:36.383Z,149.13
2022-07-27T14:36:06.849Z,66.20
2022-07-27T14:38:34.575Z,102.03
2022-07-27T14:41:02.213Z,85.50
2022-07-27T14:43:30.659Z,130.30
2022-07-27T14:45:59.657Z,145.13
2022-07-27T14:48:48.474Z,115.25
2022-07-27T14:51:15.251Z,110.30
2022-07-27T14:53:42.702Z,138.77
2022-07-27T14:56:10.336Z,78.13
2022-07-27T14:58:38.068Z,149.00
2022-07-27T15:01:05.855Z,116.97
2022-07-27T15:03:33.438Z,96.07
2022-07-27T15:06:01.250Z,105.47
2022-07-27T15:08:28.693Z,97.20
2022-07-27T15:10:57.619Z,149.68
2022-07-27T15:13:25.292Z,68.80
2022-07-27T15:15:53.327Z,107.40
2022-07-27T15:18:21.296Z,140.95
2022-07-27T15:20:48.995Z,119.70
2022-07-27T15:23:16.757Z,130.68
2022-07-27T15:25:44.752Z,112.63
2022-07-27T15:28:12.581Z,152.93
2022-07-27T15:30:40.380Z,94.88
2022-07-27T15:33:07.982Z,120.47
2022-07-27T15:35:36.172Z,157.27
2022-07-27T15:38:04.036Z,115.57
2022-07-27T15:40:37.674Z,138.18
2022-07-27T15:43:07.196Z,134.52
2022-07-27T15:45:38.955Z,104.07
2022-07-27T15:48:09.365Z,128.10
2022-07-27T15:50:38.382Z,84.03
2022-07-27T15:53:06.922Z,215.30
2022-07-27T15:55:37.740Z,169.85
2022-07-27T15:58:06.004Z,177.25
2022-07-27T16:00:39.119Z,174.90
2022-07-27T16:03:07.005Z,145.35
2022-07-27T16:05:35.092Z,196.43
2022-07-27T16:08:02.686Z,146.38
2022-07-27T16:10:30.197Z,167.60
2022-07-27T16:12:58.868Z,219.70
2022-07-27T16:15:45.297Z,164.88
2022-07-27T16:18:13.047Z,192.35
2022-07-27T16:20:40.733Z,185.57
2022-07-27T16:23:19.013Z,173.05
2022-07-27T16:26:05.699Z,234.55
2022-07-27T16:28:36.050Z,219.83
2022-07-27T16:31:06.146Z,190.32
2022-07-27T16:33:33.995Z,183.90
2022-07-27T16:36:01.799Z,138.52
2022-07-27T16:38:29.825Z,180.77
2022-07-27T16:40:57.370Z,135.45
2022-07-27T16:43:37.202Z,144.85
2022-07-27T16:46:10.305Z,163.32
2022-07-27T16:48:42.200Z,154.93
2022-07-27T16:51:13.539Z,98.40
2022-07-27T16:53:43.130Z,163.15
2022-07-27T16:56:11.156Z,181.55
2022-07-27T16:58:39.693Z,120.07
2022-07-27T17:01:08.129Z,143.00
2022-07-27T17:03:36.063Z,185.50
2022-07-27T17:06:06.547Z,177.93
2022-07-27T17:08:36.547Z,142.40
2022-07-27T17:11:05.414Z,150.23
2022-07-27T17:13:36.224Z,180.48
2022-07-27T17:16:08.373Z,112.97
2022-07-27T17:18:40.281Z,137.88
2022-07-27T17:21:15.429Z,267.00
2022-07-27T17:23:44.018Z,103.82
2022-07-27T17:26:12.776Z,138.18
2022-07-27T17:28:40.916Z,126.80
2022-07-27T17:31:11.172Z,117.95
2022-07-27T17:33:40.010Z,121.65
2022-07-27T17:36:14.598Z,150.75
2022-07-27T17:38:46.769Z,121.60
2022-07-27T17:41:21.711Z,192.00
2022-07-27T17:43:52.325Z,180.73
2022-07-27T17:46:20.072Z,167.25
2022-07-27T17:48:48.825Z,197.13
2022-07-27T17:51:16.411Z,179.55
2022-07-27T17:53:47.077Z,180.45
2022-07-27T17:56:15.009Z,232.07
2022-07-27T17:58:43.331Z,173.38
2022-07-27T18:01:11.067Z,187.88
2022-07-27T18:03:40.494Z,151.23
2022-07-27T18:06:09.132Z,209.83
2022-07-27T18:08:36.936Z,134.80
2022-07-27T18:11:04.684Z,174.90
2022-07-27T18:13:39.127Z,224.33
2022-07-27T18:16:13.493Z,155.57
2022-07-27T18:18:42.595Z,170.90
2022-07-27T18:21:11.206Z,344.37
2022-07-27T18:23:39.627Z,206.93
2022-07-27T18:26:10.409Z,133.63
2022-07-27T18:28:40.122Z,178.63
2022-07-27T18:31:10.160Z,137.93
2022-07-27T18:33:38.429Z,164.20
2022-07-27T18:36:06.612Z,181.18
2022-07-27T18:38:34.209Z,170.48
2022-07-27T18:41:03.252Z,205.73
2022-07-27T18:43:30.808Z,207.88
2022-07-27T18:45:59.078Z,239.90
2022-07-27T18:48:28.893Z,280.10
2022-07-27T18:50:57.144Z,272.25
2022-07-27T18:53:24.741Z,263.60
2022-07-27T18:55:56.258Z,310.25
2022-07-27T18:58:24.943Z,297.83
2022-07-27T19:00:52.543Z,213.85
2022-07-27T19:03:22.604Z,205.55
2022-07-27T19:05:52.894Z,172.13
2022-07-27T19:08:21.387Z,228.48
2022-07-27T19:10:48.813Z,192.10
2022-07-27T19:13:17.809Z,163.93
2022-07-27T19:15:45.666Z,205.02
2022-07-27T19:18:13.497Z,207.38
2022-07-27T19:20:42.743Z,240.80
2022-07-27T19:23:10.358Z,187.25
2022-07-27T19:25:38.721Z,196.52
2022-07-27T19:28:06.647Z,336.77
2022-07-27T19:30:34.640Z,205.27
2022-07-27T19:33:02.941Z,244.60
2022-07-27T19:35:31.221Z,282.80
2022-07-27T19:37:58.988Z,217.52
2022-07-27T19:40:44.188Z,358.65
2022-07-27T19:43:13.009Z,240.63
2022-07-27T19:45:40.839Z,245.50
2022-07-27T19:48:09.000Z,276.00
2022-07-27T19:50:36.557Z,221.55
2022-07-27T19:53:07.291Z,262.15
2022-07-27T19:55:38.854Z,201.48
2022-07-27T19:58:07.239Z,249.98
2022-07-27T20:00:39.320Z,367.08
2022-07-27T20:03:09.898Z,392.80
2022-07-27T20:05:37.842Z,286.92
2022-07-27T20:08:08.552Z,333.20
2022-07-27T20:10:36.506Z,231.48
2022-07-27T20:13:05.411Z,255.60
2022-07-27T20:15:33.385Z,311.27
2022-07-27T20:18:01.096Z,273.65
2022-07-27T20:20:29.023Z,288.48
2022-07-27T20:22:56.925Z,245.38
2022-07-27T20:25:25.926Z,326.30
2022-07-27T20:27:54.244Z,290.33
2022-07-27T20:30:21.938Z,263.00
2022-07-27T20:32:50.464Z,332.83
2022-07-27T20:35:18.523Z,314.45
2022-07-27T20:37:50.078Z,407.80
2022-07-27T20:40:19.588Z,354.58
2022-07-27T20:42:48.116Z,308.63
2022-07-27T20:45:15.855Z,328.10
2022-07-27T20:47:43.695Z,284.13
2022-07-27T20:50:13.394Z,425.60
2022-07-27T20:52:41.991Z,441.08
2022-07-27T20:55:13.975Z,283.10
2022-07-27T20:57:41.709Z,291.85
2022-07-27T21:00:10.622Z,334.25
2022-07-27T21:02:39.235Z,434.88
2022-07-27T21:05:08.785Z,320.17
2022-07-27T21:07:36.446Z,332.20
2022-07-27T21:10:05.100Z,370.73
2022-07-27T21:12:32.755Z,354.17
2022-07-27T21:15:00.314Z,371.45
2022-07-27T21:17:27.865Z,338.37
2022-07-27T21:19:55.359Z,281.40
2022-07-27T21:22:23.097Z,310.88
2022-07-27T21:24:50.844Z,332.30
2022-07-27T21:27:21.181Z,424.45
2022-07-27T21:29:49.539Z,336.33
2022-07-27T21:32:17.612Z,298.92
2022-07-27T21:34:45.855Z,260.60
2022-07-27T21:37:13.330Z,331.80
2022-07-27T21:39:40.888Z,313.80
2022-07-27T21:42:08.503Z,368.05
2022-07-27T21:44:37.656Z,296.42
2022-07-27T21:47:13.102Z,401.48
2022-07-27T21:49:41.457Z,291.98
2022-07-27T21:52:09.015Z,320.80
2022-07-27T21:54:36.629Z,299.08
2022-07-27T21:57:04.143Z,301.70
2022-07-27T21:59:31.789Z,330.60
2022-07-27T22:02:01.111Z,345.40
2022-07-27T22:04:28.837Z,283.95
2022-07-27T22:06:56.394Z,375.50
2022-07-27T22:09:24.088Z,310.17
2022-07-27T22:11:51.694Z,396.63
2022-07-27T22:14:19.271Z,381.90
2022-07-27T22:16:46.791Z,363.75
2022-07-27T22:19:14.576Z,351.90
2022-07-27T22:21:42.212Z,343.30
2022-07-27T22:24:10.223Z,372.17
2022-07-27T22:26:38.125Z,342.20
2022-07-27T22:29:05.719Z,331.08
2022-07-27T22:31:33.319Z,325.58
2022-07-27T22:34:00.966Z,323.65
2022-07-27T22:36:28.466Z,345.57
2022-07-27T22:38:56.206Z,322.30
2022-07-27T22:41:23.650Z,306.55
2022-07-27T22:43:51.222Z,385.40
2022-07-27T22:46:23.605Z,266.30
2022-07-27T22:48:53.372Z,335.98
2022-07-27T22:51:20.861Z,312.77
2022-07-27T22:53:49.293Z,281.40
2022-07-27T22:56:16.911Z,370.33
2022-07-27T22:58:44.620Z,365.35
2022-07-27T23:01:36.138Z,366.60
2022-07-27T23:03:59.864Z,306.05
2022-07-27T23:06:27.347Z,323.35
2022-07-27T23:08:56.018Z,244.65
2022-07-27T23:11:23.496Z,366.23
2022-07-27T23:13:51.093Z,294.33
2022-07-27T23:16:19.037Z,310.60
2022-07-27T23:18:47.491Z,367.70
2022-07-27T23:21:15.340Z,334.95
2022-07-27T23:23:53.496Z,353.07
2022-07-27T23:26:25.957Z,364.67
2022-07-27T23:28:54.412Z,342.15
2022-07-27T23:31:22.604Z,378.50
2022-07-27T23:33:50.377Z,376.08
2022-07-27T23:36:18.008Z,349.90
2022-07-27T23:38:45.697Z,392.90
2022-07-27T23:41:13.635Z,486.23
2022-07-27T23:43:41.249Z,378.53
2022-07-27T23:46:08.894Z,266.35
2022-07-27T23:48:36.459Z,372.17
2022-07-27T23:51:04.029Z,346.73
2022-07-27T23:53:31.725Z,364.80
2022-07-27T23:55:59.270Z,350.48
2022-07-27T23:58:26.924Z,414.67
